Time;durP1;ratioP1;P1;durP2;ratioP2;P2;SDS_P1;SDS_P2;PMS_P1;PMS_P2;Temp;Humidity;BMP_temperature;BMP_pressure;BME280_temperature;BME280_humidity;BME280_pressure;Samples;Min_cycle;Max_cycle;Signal;HPM_P1;HPM_P2
2022/11/30 00:01:13;;;;;;;;;;;;;;;;;;6132675;23;20029;-92
2022/11/30 00:03:39;;;;;;;;;;;;;;;;;;6130934;23;19924;-92
2022/11/30 00:06:05;;;;;;;;;;;;;;;;;;6133325;23;19917;-92
2022/11/30 00:08:31;;;;;;;;;;;;;;;;;;6124727;23;19920;-92
2022/11/30 00:10:57;;;;;;;;;;;;;;;;;;6125516;23;19920;-92
2022/11/30 00:13:23;;;;;;;;;;;;;;;;;;6123449;23;19971;-93
2022/11/30 00:15:49;;;;;;;;;;;;;;;;;;6138308;23;19976;-93
2022/11/30 00:18:16;;;;;;;;;;;;;;;;;;6131876;23;19916;-93
2022/11/30 00:20:42;;;;;;;;;;;;;;;;;;6130092;23;19920;-93
2022/11/30 00:23:08;;;;;;;;;;;;;;;;;;6156529;23;19924;-93
2022/11/30 00:25:34;;;;;;;;;;;;;;;;;;6179878;23;19952;-93
2022/11/30 00:28:01;;;;;;;;;;;;;;;;;;6155916;23;19920;-93
2022/11/30 00:30:27;;;;;;;;;;;;;;;;;;6179721;23;20132;-93
2022/11/30 00:32:52;;;;;;;;;;;;;;;;;;6133426;23;19920;-93
2022/11/30 00:35:18;;;;;;;;;;;;;;;;;;6131567;23;19982;-93
2022/11/30 00:37:44;;;;;;;;;;;;;;;;;;6130362;23;19967;-92
2022/11/30 00:40:11;;;;;;;;;;;;;;;;;;6158873;23;19927;-93
2022/11/30 00:42:37;;;;;;;;;;;;;;;;;;6161986;23;20261;-92
2022/11/30 00:45:03;;;;;;;;;;;;;;;;;;6163307;23;19921;-93
2022/11/30 00:47:29;;;;;;;;;;;;;;;;;;6162653;23;19917;-92
2022/11/30 00:49:55;;;;;;;;;;;;;;;;;;6137180;23;19920;-92
2022/11/30 00:52:21;;;;;;;;;;;;;;;;;;6138183;23;19920;-93
2022/11/30 00:54:47;;;;;;;;;;;;;;;;;;6159557;23;19924;-93
2022/11/30 00:57:13;;;;;;;;;;;;;;;;;;6161587;23;19940;-93
2022/11/30 00:59:38;;;;;;;;;;;;;;;;;;6158351;23;19920;-93
2022/11/30 01:02:04;;;;;;;;;;;;;;;;;;6160260;23;19923;-93
2022/11/30 01:04:30;;;;;;;;;;;;;;;;;;6158076;23;19920;-92
2022/11/30 01:06:56;;;;;;;;;;;;;;;;;;6160958;23;19920;-92
2022/11/30 01:09:22;;;;;;;;;;;;;;;;;;6159643;23;19951;-92
2022/11/30 01:11:48;;;;;;;;;;;;;;;;;;6156649;23;20007;-92
2022/11/30 01:14:14;;;;;;;;;;;;;;;;;;6158349;23;19952;-93
2022/11/30 01:16:40;;;;;;;;;;;;;;;;;;6153826;23;19985;-93
2022/11/30 01:19:06;;;;;;;;;;;;;;;;;;6130613;23;19920;-93
2022/11/30 01:21:32;;;;;;;;;;;;;;;;;;6127573;23;19982;-93
2022/11/30 01:23:58;;;;;;;;;;;;;;;;;;6131645;23;19982;-92
2022/11/30 01:26:24;;;;;;;;;;;;;;;;;;6131577;23;19923;-93
2022/11/30 01:28:53;;;;;;;;;;;;;;;;;;6135538;23;19916;-93
2022/11/30 01:31:19;;;;;;;;;;;;;;;;;;6137769;23;19920;-94
2022/11/30 01:33:45;;;;;;;;;;;;;;;;;;6134965;23;20261;-93
2022/11/30 01:36:11;;;;;;;;;;;;;;;;;;6160903;23;20334;-93
2022/11/30 01:38:37;;;;;;;;;;;;;;;;;;6157846;23;20344;-93
2022/11/30 01:41:03;;;;;;;;;;;;;;;;;;6159953;23;19920;-93
2022/11/30 01:43:29;;;;;;;;;;;;;;;;;;6160596;23;20420;-93
2022/11/30 01:45:55;;;;;;;;;;;;;;;;;;6137371;23;19920;-92
2022/11/30 01:48:21;;;;;;;;;;;;;;;;;;6137470;23;19923;-91
2022/11/30 01:50:47;;;;;;;;;;;;;;;;;;6157860;23;19947;-91
2022/11/30 01:53:13;;;;;;;;;;;;;;;;;;6159371;23;19916;-92
2022/11/30 01:55:39;;;;;;;;;;;;;;;;;;6132197;23;19916;-92
2022/11/30 01:58:05;;;;;;;;;;;;;;;;;;6156496;23;20337;-92
2022/11/30 02:00:31;;;;;;;;;;;;;;;;;;6131359;23;19923;-92
2022/11/30 02:02:57;;;;;;;;;;;;;;;;;;6158596;23;19921;-92
2022/11/30 02:05:23;;;;;;;;;;;;;;;;;;6131696;23;19928;-92
2022/11/30 02:07:49;;;;;;;;;;;;;;;;;;6151368;23;19920;-92
2022/11/30 02:10:15;;;;;;;;;;;;;;;;;;6128592;23;19923;-92
2022/11/30 02:12:41;;;;;;;;;;;;;;;;;;6124910;23;19921;-92
2022/11/30 02:15:08;;;;;;;;;;;;;;;;;;6151969;23;20205;-92
2022/11/30 02:17:34;;;;;;;;;;;;;;;;;;6152610;23;20341;-91
2022/11/30 02:20:00;;;;;;;;;;;;;;;;;;6131840;23;19920;-92
2022/11/30 02:22:26;;;;;;;;;;;;;;;;;;6152415;23;20002;-91
2022/11/30 02:24:51;;;;;;;;;;;;;;;;;;6152356;23;20253;-91
2022/11/30 02:27:17;;;;;;;;;;;;;;;;;;6127297;23;19917;-92
2022/11/30 02:29:43;;;;;;;;;;;;;;;;;;6124397;23;20330;-92
2022/11/30 02:32:09;;;;;;;;;;;;;;;;;;6125465;23;19920;-92
2022/11/30 02:34:36;;;;;;;;;;;;;;;;;;6148961;23;19923;-92
2022/11/30 02:37:01;;;;;;;;;;;;;;;;;;6176921;23;19963;-92
2022/11/30 02:39:27;;;;;;;;;;;;;;;;;;6149756;23;19920;-92
2022/11/30 02:41:53;;;;;;;;;;;;;;;;;;6148093;23;19956;-92
2022/11/30 02:44:19;;;;;;;;;;;;;;;;;;6125237;23;19974;-91
2022/11/30 02:46:45;;;;;;;;;;;;;;;;;;6146727;23;20242;-92
2022/11/30 02:49:11;;;;;;;;;;;;;;;;;;6124775;23;20328;-91
2022/11/30 02:51:37;;;;;;;;;;;;;;;;;;6171217;23;19926;-92
2022/11/30 02:54:03;;;;;;;;;;;;;;;;;;6126069;23;19920;-92
2022/11/30 02:56:29;;;;;;;;;;;;;;;;;;6123263;23;20397;-92
2022/11/30 02:58:55;;;;;;;;;;;;;;;;;;6151127;23;19920;-93
2022/11/30 03:01:21;;;;;;;;;;;;;;;;;;6149445;23;19967;-93
2022/11/30 03:03:47;;;;;;;;;;;;;;;;;;6146604;23;20238;-92
2022/11/30 03:06:13;;;;;;;;;;;;;;;;;;6150793;23;20348;-92
2022/11/30 03:08:39;;;;;;;;;;;;;;;;;;6149219;23;19946;-92
2022/11/30 03:11:05;;;;;;;;;;;;;;;;;;6155826;23;19920;-92
2022/11/30 03:13:31;;;;;;;;;;;;;;;;;;6127609;23;20076;-92
2022/11/30 03:15:57;;;;;;;;;;;;;;;;;;6128722;23;20288;-92
2022/11/30 03:18:23;;;;;;;;;;;;;;;;;;6127698;23;19923;-92
2022/11/30 03:20:49;;;;;;;;;;;;;;;;;;6155211;23;20019;-92
2022/11/30 03:23:16;;;;;;;;;;;;;;;;;;6156797;23;19924;-91
2022/11/30 03:25:42;;;;;;;;;;;;;;;;;;6126626;23;19951;-91
2022/11/30 03:28:08;;;;;;;;;;;;;;;;;;6126311;23;19917;-91
2022/11/30 03:30:34;;;;;;;;;;;;;;;;;;6126383;23;19916;-92
2022/11/30 03:33:00;;;;;;;;;;;;;;;;;;6151888;23;20440;-92
2022/11/30 03:35:26;;;;;;;;;;;;;;;;;;6152297;23;19920;-92
2022/11/30 03:37:52;;;;;;;;;;;;;;;;;;6129088;23;19944;-92
2022/11/30 03:40:18;;;;;;;;;;;;;;;;;;6123988;23;19927;-92
2022/11/30 03:42:44;;;;;;;;;;;;;;;;;;6124174;23;19920;-92
2022/11/30 03:45:10;;;;;;;;;;;;;;;;;;6126324;23;19920;-92
2022/11/30 03:47:36;;;;;;;;;;;;;;;;;;6150039;23;19967;-91
2022/11/30 03:50:02;;;;;;;;;;;;;;;;;;6150410;23;20368;-92
2022/11/30 03:52:28;;;;;;;;;;;;;;;;;;6128032;23;19922;-91
2022/11/30 03:54:54;;;;;;;;;;;;;;;;;;6131784;23;19923;-92
2022/11/30 03:57:20;;;;;;;;;;;;;;;;;;6131629;23;19916;-92
2022/11/30 03:59:46;;;;;;;;;;;;;;;;;;6155574;23;20219;-91
2022/11/30 04:02:12;;;;;;;;;;;;;;;;;;6154763;23;19924;-91
2022/11/30 04:04:38;;;;;;;;;;;;;;;;;;6127179;23;19939;-92
2022/11/30 04:07:04;;;;;;;;;;;;;;;;;;6131227;23;19927;-92
2022/11/30 04:09:30;;;;;;;;;;;;;;;;;;6127655;23;20322;-92
2022/11/30 04:11:56;;;;;;;;;;;;;;;;;;6154079;23;19920;-92
2022/11/30 04:14:22;;;;;;;;;;;;;;;;;;6155702;23;19924;-92
2022/11/30 04:16:48;;;;;;;;;;;;;;;;;;6153675;23;19920;-92
2022/11/30 04:19:14;;;;;;;;;;;;;;;;;;6131501;23;19946;-92
2022/11/30 04:21:40;;;;;;;;;;;;;;;;;;6127147;23;19924;-91
2022/11/30 04:24:06;;;;;;;;;;;;;;;;;;6129922;23;19959;-93
2022/11/30 04:26:32;;;;;;;;;;;;;;;;;;6126938;23;19962;-93
2022/11/30 04:28:58;;;;;;;;;;;;;;;;;;6129411;23;19991;-93
2022/11/30 04:31:27;;;;;;;;;;;;;;;;;;6129591;23;19920;-93
2022/11/30 04:33:53;;;;;;;;;;;;;;;;;;6131096;23;19927;-93
2022/11/30 04:36:19;;;;;;;;;;;;;;;;;;6153992;23;20289;-94
2022/11/30 04:38:45;;;;;;;;;;;;;;;;;;6152909;23;20294;-93
2022/11/30 04:41:11;;;;;;;;;;;;;;;;;;6129382;23;19921;-93
2022/11/30 04:43:37;;;;;;;;;;;;;;;;;;6150294;23;19925;-93
2022/11/30 04:46:03;;;;;;;;;;;;;;;;;;6152612;23;19943;-93
2022/11/30 04:48:29;;;;;;;;;;;;;;;;;;6125902;23;19975;-91
2022/11/30 04:50:55;;;;;;;;;;;;;;;;;;6155214;23;20254;-91
2022/11/30 04:53:21;;;;;;;;;;;;;;;;;;6156272;23;19926;-92
2022/11/30 04:55:47;;;;;;;;;;;;;;;;;;6129346;23;20396;-92
2022/11/30 04:58:13;;;;;;;;;;;;;;;;;;6131215;23;19927;-92
2022/11/30 05:00:39;;;;;;;;;;;;;;;;;;6152474;23;19971;-92
2022/11/30 05:03:05;;;;;;;;;;;;;;;;;;6153685;23;19924;-92
2022/11/30 05:05:31;;;;;;;;;;;;;;;;;;6153127;23;20035;-92
2022/11/30 05:07:57;;;;;;;;;;;;;;;;;;6131509;23;19916;-92
2022/11/30 05:10:23;;;;;;;;;;;;;;;;;;6156684;23;20414;-92
2022/11/30 05:12:49;;;;;;;;;;;;;;;;;;6153529;23;19950;-92
2022/11/30 05:15:15;;;;;;;;;;;;;;;;;;6131328;23;19920;-91
2022/11/30 05:17:41;;;;;;;;;;;;;;;;;;6179216;23;19931;-91
2022/11/30 05:20:07;;;;;;;;;;;;;;;;;;6154462;23;19920;-92
2022/11/30 05:22:36;;;;;;;;;;;;;;;;;;6152923;23;20339;-91
2022/11/30 05:25:02;;;;;;;;;;;;;;;;;;6155998;23;19990;-91
2022/11/30 05:27:28;;;;;;;;;;;;;;;;;;6153559;23;20333;-91
2022/11/30 05:29:54;;;;;;;;;;;;;;;;;;6157054;23;19920;-91
2022/11/30 05:32:20;;;;;;;;;;;;;;;;;;6156111;23;19920;-92
2022/11/30 05:34:46;;;;;;;;;;;;;;;;;;6152481;23;20364;-91
2022/11/30 05:37:12;;;;;;;;;;;;;;;;;;6154160;23;19931;-92
2022/11/30 05:39:38;;;;;;;;;;;;;;;;;;6150159;23;19994;-92
2022/11/30 05:42:04;;;;;;;;;;;;;;;;;;6153453;23;20450;-92
2022/11/30 05:44:30;;;;;;;;;;;;;;;;;;6151905;23;20296;-92
2022/11/30 05:46:56;;;;;;;;;;;;;;;;;;6151863;23;19995;-92
2022/11/30 05:49:22;;;;;;;;;;;;;;;;;;6151481;23;19944;-93
2022/11/30 05:51:48;;;;;;;;;;;;;;;;;;6150133;23;19922;-91
2022/11/30 05:54:14;;;;;;;;;;;;;;;;;;6150035;23;19928;-91
2022/11/30 05:56:40;;;;;;;;;;;;;;;;;;6147366;23;20340;-91
2022/11/30 05:59:06;;;;;;;;;;;;;;;;;;6145014;23;19927;-90
2022/11/30 06:01:32;;;;;;;;;;;;;;;;;;6136270;23;19931;-89
2022/11/30 06:03:58;;;;;;;;;;;;;;;;;;6145064;23;20309;-90
2022/11/30 06:06:24;;;;;;;;;;;;;;;;;;6146613;23;19920;-89
2022/11/30 06:08:50;;;;;;;;;;;;;;;;;;6143297;23;19939;-90
2022/11/30 06:11:16;;;;;;;;;;;;;;;;;;6152630;23;19920;-90
2022/11/30 06:13:45;;;;;;;;;;;;;;;;;;6147458;23;19960;-90
2022/11/30 06:16:11;;;;;;;;;;;;;;;;;;6150214;23;19924;-92
2022/11/30 06:18:37;;;;;;;;;;;;;;;;;;6179630;23;19916;-93
2022/11/30 06:21:03;;;;;;;;;;;;;;;;;;6153746;23;20253;-93
2022/11/30 06:23:29;;;;;;;;;;;;;;;;;;6155682;23;19927;-94
2022/11/30 06:25:55;;;;;;;;;;;;;;;;;;6156800;23;19920;-93
2022/11/30 06:28:27;;;;;;;;;;;;;;;;;;6152489;23;19927;-93
2022/11/30 06:59:51;;;;;;;;;;;;;;;;;;6270115;22;19938;-84
2022/11/30 08:11:31;;;;;;;;;;;;;;;;;;6219685;22;19946;-87
2022/11/30 09:01:27;;;;;;;;;;;;;;;;;;6259659;22;19923;-92
2022/11/30 09:03:53;;;;;;;;;;;;;;;;;;6216856;22;20018;-92
2022/11/30 09:06:19;;;;;;;;;;;;;;;;;;6240645;22;19926;-93
2022/11/30 09:08:45;;;;;;;;;;;;;;;;;;6214937;22;20325;-92
2022/11/30 09:11:11;;;;;;;;;;;;;;;;;;6218426;22;19915;-91
2022/11/30 09:13:37;;;;;;;;;;;;;;;;;;6214091;22;20336;-92
2022/11/30 09:16:03;;;;;;;;;;;;;;;;;;6216738;22;19915;-93
2022/11/30 09:18:29;;;;;;;;;;;;;;;;;;6212541;22;19930;-92
2022/11/30 09:20:55;;;;;;;;;;;;;;;;;;6239971;22;20025;-92
2022/11/30 09:23:21;;;;;;;;;;;;;;;;;;6216774;22;19924;-92
2022/11/30 09:25:47;;;;;;;;;;;;;;;;;;6215891;22;19919;-92
2022/11/30 09:28:13;;;;;;;;;;;;;;;;;;6217701;22;19915;-92
2022/11/30 09:30:39;;;;;;;;;;;;;;;;;;6241472;22;19973;-92
2022/11/30 09:33:05;;;;;;;;;;;;;;;;;;6216260;22;20367;-92
2022/11/30 09:35:31;;;;;;;;;;;;;;;;;;6214744;22;19918;-91
2022/11/30 09:37:57;;;;;;;;;;;;;;;;;;6243810;22;19963;-92
2022/11/30 09:40:23;;;;;;;;;;;;;;;;;;6218198;22;19975;-92
2022/11/30 09:42:49;;;;;;;;;;;;;;;;;;6213673;22;19970;-93
2022/11/30 09:45:15;;;;;;;;;;;;;;;;;;6243520;22;20243;-92
2022/11/30 09:47:41;;;;;;;;;;;;;;;;;;6215746;22;19923;-93
2022/11/30 09:50:07;;;;;;;;;;;;;;;;;;6218389;22;19919;-94
2022/11/30 09:52:33;;;;;;;;;;;;;;;;;;6215452;22;19919;-92
2022/11/30 09:55:02;;;;;;;;;;;;;;;;;;6242087;22;20002;-93
2022/11/30 09:57:30;;;;;;;;;;;;;;;;;;6250838;22;20049;-91
2022/11/30 09:59:55;;;;;;;;;;;;;;;;;;6241647;22;19919;-92
2022/11/30 10:02:21;;;;;;;;;;;;;;;;;;6241694;22;19926;-93
2022/11/30 10:04:47;;;;;;;;;;;;;;;;;;6239991;22;19920;-93
2022/11/30 10:07:13;;;;;;;;;;;;;;;;;;6241586;22;19962;-92
2022/11/30 10:09:39;;;;;;;;;;;;;;;;;;6238665;22;19945;-92
2022/11/30 10:12:05;;;;;;;;;;;;;;;;;;6241408;22;19915;-92
2022/11/30 10:14:32;;;;;;;;;;;;;;;;;;6239764;22;19919;-92
2022/11/30 10:16:58;;;;;;;;;;;;;;;;;;6240987;22;19919;-92
2022/11/30 10:19:24;;;;;;;;;;;;;;;;;;6240577;22;19919;-91
2022/11/30 10:21:50;;;;;;;;;;;;;;;;;;6240052;22;20317;-91
2022/11/30 10:24:16;;;;;;;;;;;;;;;;;;6241243;22;20013;-92
2022/11/30 10:26:42;;;;;;;;;;;;;;;;;;6237956;22;20352;-92
2022/11/30 10:29:08;;;;;;;;;;;;;;;;;;6241651;22;19919;-93
2022/11/30 10:31:34;;;;;;;;;;;;;;;;;;6242538;22;19915;-93
2022/11/30 10:34:00;;;;;;;;;;;;;;;;;;6243905;22;20341;-93
2022/11/30 10:36:26;;;;;;;;;;;;;;;;;;6241308;22;19926;-92
2022/11/30 10:38:52;;;;;;;;;;;;;;;;;;6241341;22;19926;-93
2022/11/30 10:41:18;;;;;;;;;;;;;;;;;;6242604;22;19926;-93
2022/11/30 10:43:44;;;;;;;;;;;;;;;;;;6241858;22;19919;-93
2022/11/30 10:46:10;;;;;;;;;;;;;;;;;;6243258;22;20351;-92
2022/11/30 10:48:36;;;;;;;;;;;;;;;;;;6237954;22;19920;-93
2022/11/30 10:51:02;;;;;;;;;;;;;;;;;;6243436;22;19915;-92
2022/11/30 10:53:28;;;;;;;;;;;;;;;;;;6239605;22;19923;-92
2022/11/30 10:55:53;;;;;;;;;;;;;;;;;;6241440;22;19919;-92
2022/11/30 10:58:19;;;;;;;;;;;;;;;;;;6240219;22;20338;-93
2022/11/30 11:00:45;;;;;;;;;;;;;;;;;;6239388;22;20724;-92
2022/11/30 11:03:11;;;;;;;;;;;;;;;;;;6239828;22;19923;-93
2022/11/30 11:05:37;;;;;;;;;;;;;;;;;;6239217;22;19919;-92
2022/11/30 11:08:03;;;;;;;;;;;;;;;;;;6246142;22;19923;-92
2022/11/30 11:10:29;;;;;;;;;;;;;;;;;;6246902;22;20336;-92
2022/11/30 11:12:55;;;;;;;;;;;;;;;;;;6245657;22;19965;-93
2022/11/30 11:15:21;;;;;;;;;;;;;;;;;;6247705;22;19926;-92
2022/11/30 11:17:47;;;;;;;;;;;;;;;;;;6246561;22;20402;-92
2022/11/30 11:20:13;;;;;;;;;;;;;;;;;;6249027;22;19919;-92
2022/11/30 11:22:39;;;;;;;;;;;;;;;;;;6244877;22;19927;-92
2022/11/30 11:25:05;;;;;;;;;;;;;;;;;;6247942;22;19919;-92
2022/11/30 11:27:31;;;;;;;;;;;;;;;;;;6243642;22;19955;-92
2022/11/30 11:29:57;;;;;;;;;;;;;;;;;;6244222;22;19919;-92
2022/11/30 11:32:26;;;;;;;;;;;;;;;;;;6242780;22;19926;-92
2022/11/30 11:34:52;;;;;;;;;;;;;;;;;;6246382;22;20324;-92
2022/11/30 11:37:19;;;;;;;;;;;;;;;;;;6244791;22;19919;-92
2022/11/30 11:39:45;;;;;;;;;;;;;;;;;;6243425;22;19919;-92
2022/11/30 11:42:11;;;;;;;;;;;;;;;;;;6244441;22;20324;-93
2022/11/30 11:44:36;;;;;;;;;;;;;;;;;;6243288;22;20516;-92
2022/11/30 11:47:02;;;;;;;;;;;;;;;;;;6244877;22;19922;-92
2022/11/30 11:49:28;;;;;;;;;;;;;;;;;;6244423;22;19919;-93
2022/11/30 11:51:54;;;;;;;;;;;;;;;;;;6246110;22;19926;-92
2022/11/30 11:54:20;;;;;;;;;;;;;;;;;;6246118;22;19947;-93
2022/11/30 11:56:46;;;;;;;;;;;;;;;;;;6243684;22;20320;-92
2022/11/30 11:59:13;;;;;;;;;;;;;;;;;;6246303;22;20240;-92
2022/11/30 12:01:39;;;;;;;;;;;;;;;;;;6242938;22;19927;-92
2022/11/30 12:04:04;;;;;;;;;;;;;;;;;;6241605;22;19930;-92
2022/11/30 12:06:31;;;;;;;;;;;;;;;;;;6238739;22;19981;-92
2022/11/30 12:08:56;;;;;;;;;;;;;;;;;;6239451;22;19919;-92
2022/11/30 12:11:22;;;;;;;;;;;;;;;;;;6241394;22;19923;-92
2022/11/30 12:13:49;;;;;;;;;;;;;;;;;;6239334;22;19990;-92
2022/11/30 12:16:15;;;;;;;;;;;;;;;;;;6239660;22;19972;-92
2022/11/30 12:18:41;;;;;;;;;;;;;;;;;;6238461;22;19915;-92
2022/11/30 12:21:07;;;;;;;;;;;;;;;;;;6241654;22;20332;-92
2022/11/30 12:23:33;;;;;;;;;;;;;;;;;;6237570;22;20028;-93
2022/11/30 12:25:59;;;;;;;;;;;;;;;;;;6241737;22;19930;-92
2022/11/30 12:28:25;;;;;;;;;;;;;;;;;;6240510;22;19922;-92
2022/11/30 12:30:51;;;;;;;;;;;;;;;;;;6242276;22;20328;-92
2022/11/30 12:33:17;;;;;;;;;;;;;;;;;;6239523;22;19923;-93
2022/11/30 12:35:43;;;;;;;;;;;;;;;;;;6240001;22;19954;-92
2022/11/30 12:38:09;;;;;;;;;;;;;;;;;;6241634;22;20409;-92
2022/11/30 12:40:35;;;;;;;;;;;;;;;;;;6235004;22;19919;-92
2022/11/30 12:43:01;;;;;;;;;;;;;;;;;;6238182;22;19929;-92
2022/11/30 12:45:27;;;;;;;;;;;;;;;;;;6235839;22;20237;-92
2022/11/30 12:47:53;;;;;;;;;;;;;;;;;;6240103;22;19916;-92
2022/11/30 12:50:20;;;;;;;;;;;;;;;;;;6238576;22;20057;-92
2022/11/30 12:52:46;;;;;;;;;;;;;;;;;;6237827;22;20292;-92
2022/11/30 12:55:12;;;;;;;;;;;;;;;;;;6238496;22;19919;-92
2022/11/30 12:57:38;;;;;;;;;;;;;;;;;;6237974;22;19953;-92
2022/11/30 13:00:03;;;;;;;;;;;;;;;;;;6236984;22;19919;-92
2022/11/30 13:02:29;;;;;;;;;;;;;;;;;;6238519;22;19973;-93
2022/11/30 13:04:55;;;;;;;;;;;;;;;;;;6240176;22;19982;-92
2022/11/30 13:07:21;;;;;;;;;;;;;;;;;;6243508;22;19926;-92
2022/11/30 13:09:47;;;;;;;;;;;;;;;;;;6242496;22;19919;-92
2022/11/30 13:12:13;;;;;;;;;;;;;;;;;;6244442;22;19920;-92
2022/11/30 13:14:40;;;;;;;;;;;;;;;;;;6242946;22;19963;-92
2022/11/30 13:17:06;;;;;;;;;;;;;;;;;;6243091;22;19942;-93
2022/11/30 13:19:32;;;;;;;;;;;;;;;;;;6239330;22;19915;-93
2022/11/30 13:21:58;;;;;;;;;;;;;;;;;;6242292;22;19919;-92
2022/11/30 13:24:25;;;;;;;;;;;;;;;;;;6242229;22;20351;-92
2022/11/30 13:26:51;;;;;;;;;;;;;;;;;;6240731;22;20037;-92
2022/11/30 13:29:17;;;;;;;;;;;;;;;;;;6240851;22;19972;-92
2022/11/30 13:31:43;;;;;;;;;;;;;;;;;;6216639;22;19959;-92
2022/11/30 13:34:09;;;;;;;;;;;;;;;;;;6216051;22;19923;-92
2022/11/30 13:36:35;;;;;;;;;;;;;;;;;;6215752;22;19919;-93
2022/11/30 13:39:01;;;;;;;;;;;;;;;;;;6220065;22;19915;-92
2022/11/30 13:41:27;;;;;;;;;;;;;;;;;;6213849;22;19951;-93
2022/11/30 13:43:53;;;;;;;;;;;;;;;;;;6239815;22;19939;-92
2022/11/30 13:46:19;;;;;;;;;;;;;;;;;;6216566;22;19916;-92
2022/11/30 13:48:45;;;;;;;;;;;;;;;;;;6236901;22;19966;-92
2022/11/30 13:51:11;;;;;;;;;;;;;;;;;;6242217;22;19919;-91
2022/11/30 13:53:37;;;;;;;;;;;;;;;;;;6214413;22;19946;-92
2022/11/30 13:56:04;;;;;;;;;;;;;;;;;;6216427;22;20351;-92
2022/11/30 13:58:30;;;;;;;;;;;;;;;;;;6238007;22;20469;-92
2022/11/30 14:00:56;;;;;;;;;;;;;;;;;;6241697;22;19923;-92
2022/11/30 14:03:22;;;;;;;;;;;;;;;;;;6240720;22;19923;-92
2022/11/30 14:05:48;;;;;;;;;;;;;;;;;;6238908;22;19923;-92
2022/11/30 14:08:14;;;;;;;;;;;;;;;;;;6243168;22;20392;-92
2022/11/30 14:10:40;;;;;;;;;;;;;;;;;;6244677;22;19915;-92
2022/11/30 14:13:06;;;;;;;;;;;;;;;;;;6247877;22;19919;-92
2022/11/30 14:15:33;;;;;;;;;;;;;;;;;;6245387;22;20405;-95
2022/11/30 14:17:59;;;;;;;;;;;;;;;;;;6244475;22;19923;-92
2022/11/30 14:20:28;;;;;;;;;;;;;;;;;;6245136;22;19926;-92
2022/11/30 14:22:54;;;;;;;;;;;;;;;;;;6244220;22;19923;-91
2022/11/30 14:25:20;;;;;;;;;;;;;;;;;;6241712;22;20328;-92
2022/11/30 14:27:45;;;;;;;;;;;;;;;;;;6242909;22;20335;-92
2022/11/30 14:30:11;;;;;;;;;;;;;;;;;;6250011;22;19948;-91
2022/11/30 14:32:37;;;;;;;;;;;;;;;;;;6246651;22;19969;-92
2022/11/30 14:35:03;;;;;;;;;;;;;;;;;;6247426;22;19946;-92
2022/11/30 14:37:30;;;;;;;;;;;;;;;;;;6246907;22;19923;-92
2022/11/30 14:39:56;;;;;;;;;;;;;;;;;;6243916;22;19919;-91
2022/11/30 14:42:22;;;;;;;;;;;;;;;;;;6243563;22;20005;-92
2022/11/30 14:44:49;;;;;;;;;;;;;;;;;;6240340;22;19919;-92
2022/11/30 14:47:15;;;;;;;;;;;;;;;;;;6244151;22;19994;-92
2022/11/30 14:49:41;;;;;;;;;;;;;;;;;;6247052;22;19919;-91
2022/11/30 14:52:07;;;;;;;;;;;;;;;;;;6241776;22;19984;-91
2022/11/30 14:54:36;;;;;;;;;;;;;;;;;;6237498;22;19926;-92
2022/11/30 14:57:02;;;;;;;;;;;;;;;;;;6236305;22;19942;-91
2022/11/30 14:59:28;;;;;;;;;;;;;;;;;;6234382;22;19919;-91
2022/11/30 15:01:54;;;;;;;;;;;;;;;;;;6238217;22;19923;-91
2022/11/30 15:04:20;;;;;;;;;;;;;;;;;;6240038;22;19924;-92
2022/11/30 15:06:46;;;;;;;;;;;;;;;;;;6239098;22;19919;-91
2022/11/30 15:09:12;;;;;;;;;;;;;;;;;;6240028;22;19951;-91
2022/11/30 15:11:38;;;;;;;;;;;;;;;;;;6240455;22;19922;-91
2022/11/30 15:14:04;;;;;;;;;;;;;;;;;;6241812;22;19927;-91
2022/11/30 15:16:30;;;;;;;;;;;;;;;;;;6239769;22;19915;-92
2022/11/30 15:18:56;;;;;;;;;;;;;;;;;;6241010;22;19972;-91
2022/11/30 15:21:22;;;;;;;;;;;;;;;;;;6241152;22;19927;-91
2022/11/30 15:23:48;;;;;;;;;;;;;;;;;;6239400;22;19926;-92
2022/11/30 15:26:14;;;;;;;;;;;;;;;;;;6238520;22;19919;-91
2022/11/30 15:28:40;;;;;;;;;;;;;;;;;;6236852;22;19997;-91
2022/11/30 15:31:06;;;;;;;;;;;;;;;;;;6239596;22;20251;-92
2022/11/30 15:33:32;;;;;;;;;;;;;;;;;;6235673;22;20430;-91
2022/11/30 15:35:58;;;;;;;;;;;;;;;;;;6238641;22;20006;-91
2022/11/30 15:38:24;;;;;;;;;;;;;;;;;;6242041;22;19919;-92
2022/11/30 15:40:51;;;;;;;;;;;;;;;;;;6239067;22;19926;-91
2022/11/30 15:43:17;;;;;;;;;;;;;;;;;;6242204;22;19953;-91
2022/11/30 15:45:43;;;;;;;;;;;;;;;;;;6238685;22;19996;-91
2022/11/30 15:48:09;;;;;;;;;;;;;;;;;;6240318;22;19923;-91
2022/11/30 15:50:36;;;;;;;;;;;;;;;;;;6235290;22;20237;-91
2022/11/30 15:53:02;;;;;;;;;;;;;;;;;;6239254;22;20403;-92
2022/11/30 15:55:28;;;;;;;;;;;;;;;;;;6233388;22;19930;-90
2022/11/30 15:57:54;;;;;;;;;;;;;;;;;;6233304;22;19924;-90
2022/11/30 16:00:20;;;;;;;;;;;;;;;;;;6232689;22;19997;-88
2022/11/30 16:05:38;;;;;;;;;;;;;;;;;;6197465;23;19942;-89
2022/11/30 16:08:05;;;;;;;;;;;;;;;;;;6178486;23;20344;-89
2022/11/30 16:10:31;;;;;;;;;;;;;;;;;;6175190;23;19922;-89
2022/11/30 16:12:57;;;;;;;;;;;;;;;;;;6202519;23;19915;-90
2022/11/30 16:15:22;;;;;;;;;;;;;;;;;;6178106;23;19920;-90
2022/11/30 16:17:48;;;;;;;;;;;;;;;;;;6173457;23;19924;-90
2022/11/30 16:20:14;;;;;;;;;;;;;;;;;;6178557;23;19916;-90
2022/11/30 16:22:41;;;;;;;;;;;;;;;;;;6203469;23;20001;-90
2022/11/30 16:25:07;;;;;;;;;;;;;;;;;;6200803;23;19920;-90
2022/11/30 16:27:32;;;;;;;;;;;;;;;;;;6194666;23;19920;-90
2022/11/30 16:29:59;;;;;;;;;;;;;;;;;;6175530;23;19920;-90
2022/11/30 16:32:28;;;;;;;;;;;;;;;;;;6202275;23;19916;-90
2022/11/30 16:34:54;;;;;;;;;;;;;;;;;;6175991;23;20280;-90
2022/11/30 16:37:20;;;;;;;;;;;;;;;;;;6200456;23;20380;-90
2022/11/30 16:39:49;;;;;;;;;;;;;;;;;;6199489;23;19920;-90
2022/11/30 16:42:24;;;;;;;;;;;;;;;;;;6178135;23;19941;-92
2022/11/30 16:44:50;;;;;;;;;;;;;;;;;;6200429;23;19928;-90
2022/11/30 16:47:16;;;;;;;;;;;;;;;;;;6204163;23;19920;-91
2022/11/30 16:49:42;;;;;;;;;;;;;;;;;;6174622;23;20295;-91
2022/11/30 16:52:08;;;;;;;;;;;;;;;;;;6177495;23;19973;-90
2022/11/30 16:54:34;;;;;;;;;;;;;;;;;;6179169;23;20015;-90
2022/11/30 16:57:00;;;;;;;;;;;;;;;;;;6179272;23;19928;-90
2022/11/30 16:59:26;;;;;;;;;;;;;;;;;;6178108;23;19916;-91
2022/11/30 17:01:52;;;;;;;;;;;;;;;;;;6182832;23;19946;-91
2022/11/30 17:04:18;;;;;;;;;;;;;;;;;;6228933;23;19930;-90
2022/11/30 17:06:44;;;;;;;;;;;;;;;;;;6228514;23;19923;-90
2022/11/30 17:09:10;;;;;;;;;;;;;;;;;;6228726;23;19955;-91
2022/11/30 17:11:36;;;;;;;;;;;;;;;;;;6225293;23;19926;-91
2022/11/30 17:14:02;;;;;;;;;;;;;;;;;;6226959;23;20255;-91
2022/11/30 17:16:28;;;;;;;;;;;;;;;;;;6223710;23;20042;-90
2022/11/30 17:18:57;;;;;;;;;;;;;;;;;;6227295;23;19919;-91
2022/11/30 17:21:23;;;;;;;;;;;;;;;;;;6251608;22;19919;-90
2022/11/30 17:23:49;;;;;;;;;;;;;;;;;;6223007;23;19961;-90
2022/11/30 17:26:15;;;;;;;;;;;;;;;;;;6228098;23;19965;-90
2022/11/30 17:28:41;;;;;;;;;;;;;;;;;;6220719;23;19954;-90
2022/11/30 17:31:10;;;;;;;;;;;;;;;;;;6228168;23;20333;-90
2022/11/30 17:33:59;;;;;;;;;;;;;;;;;;6250341;22;20315;-90
2022/11/30 17:39:35;;;;;;;;;;;;;;;;;;6187572;23;19926;-90
2022/11/30 17:42:29;;;;;;;;;;;;;;;;;;;;;
2022/11/30 17:45:29;;;;;;;;;;;;;;;;;;6239114;22;20012;-89
2022/11/30 17:48:04;;;;;;;;;;;;;;;;;;6194579;23;19928;-92
2022/11/30 17:50:50;;;;;;;;;;;;;;;;;;6149086;23;19920;-90
2022/11/30 17:53:20;;;;;;;;;;;;;;;;;;6117114;23;19924;-90
2022/11/30 17:55:46;;;;;;;;;;;;;;;;;;6112824;23;20355;-90
2022/11/30 17:58:12;;;;;;;;;;;;;;;;;;6114532;23;19920;-89
2022/11/30 18:00:38;;;;;;;;;;;;;;;;;;6111481;23;20361;-90
2022/11/30 18:03:04;;;;;;;;;;;;;;;;;;6111782;23;19931;-90
2022/11/30 18:05:30;;;;;;;;;;;;;;;;;;6112799;23;20291;-89
2022/11/30 18:07:56;;;;;;;;;;;;;;;;;;6116933;23;19988;-90
2022/11/30 18:10:22;;;;;;;;;;;;;;;;;;6117065;23;19920;-90
2022/11/30 18:12:47;;;;;;;;;;;;;;;;;;6116612;23;20364;-89
2022/11/30 18:15:13;;;;;;;;;;;;;;;;;;6117051;23;20440;-89
2022/11/30 18:17:39;;;;;;;;;;;;;;;;;;6116437;23;19925;-89
2022/11/30 18:20:05;;;;;;;;;;;;;;;;;;6176361;23;19920;-91
2022/11/30 18:22:31;;;;;;;;;;;;;;;;;;6203429;23;20000;-89
2022/11/30 18:24:57;;;;;;;;;;;;;;;;;;6210626;23;20225;-89
2022/11/30 18:27:25;;;;;;;;;;;;;;;;;;6232740;23;19920;-90
2022/11/30 18:29:51;;;;;;;;;;;;;;;;;;6207660;23;19915;-91
2022/11/30 18:32:17;;;;;;;;;;;;;;;;;;6233620;23;20364;-89
2022/11/30 18:34:48;;;;;;;;;;;;;;;;;;6232130;23;19920;-89
2022/11/30 18:37:14;;;;;;;;;;;;;;;;;;6208212;23;19923;-89
2022/11/30 18:39:40;;;;;;;;;;;;;;;;;;6203196;23;19927;-89
2022/11/30 18:42:06;;;;;;;;;;;;;;;;;;6206031;23;19994;-89
2022/11/30 18:44:32;;;;;;;;;;;;;;;;;;6228525;23;19924;-89
2022/11/30 18:46:57;;;;;;;;;;;;;;;;;;6231621;23;19919;-89
2022/11/30 18:49:24;;;;;;;;;;;;;;;;;;6233986;23;19920;-89
2022/11/30 18:51:50;;;;;;;;;;;;;;;;;;6204996;23;19927;-90
2022/11/30 18:54:17;;;;;;;;;;;;;;;;;;6207145;23;19915;-89
2022/11/30 18:56:43;;;;;;;;;;;;;;;;;;6202145;23;20396;-90
2022/11/30 18:59:09;;;;;;;;;;;;;;;;;;6229995;23;19924;-89
2022/11/30 19:01:35;;;;;;;;;;;;;;;;;;6206033;22;20347;-90
2022/11/30 19:04:01;;;;;;;;;;;;;;;;;;6213982;22;20384;-89
2022/11/30 19:06:28;;;;;;;;;;;;;;;;;;6233629;22;20344;-89
2022/11/30 19:08:54;;;;;;;;;;;;;;;;;;6210237;22;19977;-90
2022/11/30 19:11:20;;;;;;;;;;;;;;;;;;6207529;22;19915;-90